createdAt,value
2019-05-07T00:00:55.906Z,9.68
2019-05-07T00:03:26.785Z,8.28
2019-05-07T00:05:55.725Z,5.75
2019-05-07T00:08:26.088Z,5.85
2019-05-07T00:10:55.599Z,5.97
2019-05-07T00:13:27.096Z,5.97
2019-05-07T00:15:56.204Z,6.58
2019-05-07T00:18:26.690Z,6.55
2019-05-07T00:20:55.123Z,8.60
2019-05-07T00:23:26.705Z,5.30
2019-05-07T00:25:56.542Z,4.72
2019-05-07T00:28:25.642Z,3.95
2019-05-07T00:30:56.171Z,5.85
2019-05-07T00:33:25.246Z,9.23
2019-05-07T00:35:57.798Z,5.97
2019-05-07T00:38:31.950Z,6.90
2019-05-07T00:41:06.945Z,6.10
2019-05-07T00:43:36.479Z,5.83
2019-05-07T00:46:07.035Z,5.35
2019-05-07T00:48:41.705Z,4.53
2019-05-07T00:51:25.097Z,4.70
2019-05-07T00:53:57.162Z,6.75
2019-05-07T00:56:28.496Z,5.15
2019-05-07T00:59:05.612Z,4.70
2019-05-07T01:01:36.668Z,6.03
2019-05-07T01:04:07.062Z,7.08
2019-05-07T01:06:37.013Z,6.65
2019-05-07T01:09:07.155Z,4.70
2019-05-07T01:11:36.708Z,8.15
2019-05-07T01:14:07.003Z,6.97
2019-05-07T01:16:35.625Z,6.80
2019-05-07T01:19:06.423Z,5.05
2019-05-07T01:21:37.320Z,5.10
2019-05-07T01:24:08.911Z,8.20
2019-05-07T01:26:38.582Z,3.98
2019-05-07T01:29:08.952Z,3.62
2019-05-07T01:31:39.153Z,3.75
2019-05-07T01:34:13.628Z,3.92
2019-05-07T01:36:45.817Z,6.33
2019-05-07T01:39:16.815Z,6.58
2019-05-07T01:41:46.640Z,6.85
2019-05-07T01:44:24.982Z,6.22
2019-05-07T01:46:53.685Z,4.15
2019-05-07T01:49:24.018Z,4.67
2019-05-07T01:51:54.475Z,4.25
2019-05-07T01:54:24.154Z,5.75
2019-05-07T01:56:52.244Z,5.50
2019-05-07T01:59:22.506Z,7.40
2019-05-07T02:01:53.156Z,3.90
2019-05-07T02:04:23.976Z,4.78
2019-05-07T02:07:08.197Z,5.92
2019-05-07T02:09:47.698Z,6.12
2019-05-07T02:12:19.647Z,7.85
2019-05-07T02:14:48.838Z,8.08
2019-05-07T02:17:18.678Z,7.33
2019-05-07T02:19:47.973Z,8.08
2019-05-07T02:22:18.184Z,8.60
2019-05-07T02:24:48.837Z,5.83
2019-05-07T02:27:17.588Z,6.90
2019-05-07T02:29:46.966Z,4.92
2019-05-07T02:32:18.836Z,4.95
2019-05-07T02:34:49.832Z,7.45
2019-05-07T02:37:27.502Z,6.05
2019-05-07T02:40:04.211Z,9.28
2019-05-07T02:42:33.582Z,5.17
2019-05-07T02:45:06.529Z,6.45
2019-05-07T02:47:36.381Z,7.55
2019-05-07T02:50:15.421Z,5.67
2019-05-07T02:52:53.756Z,5.53
2019-05-07T02:55:35.025Z,8.55
2019-05-07T02:58:05.059Z,6.92
2019-05-07T03:00:35.056Z,9.48
2019-05-07T03:03:05.221Z,7.25
2019-05-07T03:05:35.187Z,8.03
2019-05-07T03:08:08.341Z,10.38
2019-05-07T03:10:38.257Z,8.05
2019-05-07T03:13:07.520Z,8.78
2019-05-07T03:15:38.921Z,10.53
2019-05-07T03:18:09.115Z,12.73
2019-05-07T03:20:55.040Z,9.83
2019-05-07T03:23:28.737Z,10.43
2019-05-07T03:26:03.972Z,11.08
2019-05-07T03:28:34.555Z,8.80
2019-05-07T03:31:16.558Z,10.50
2019-05-07T03:33:48.307Z,8.53
2019-05-07T03:36:25.780Z,8.00
2019-05-07T03:41:26.470Z,12.25
2019-05-07T03:43:55.183Z,13.70
2019-05-07T03:46:24.011Z,13.28
2019-05-07T03:48:53.474Z,88.87
2019-05-07T03:51:24.042Z,100.27
2019-05-07T03:53:54.059Z,27.70
2019-05-07T03:56:24.360Z,20.23
2019-05-07T03:58:53.341Z,31.30
2019-05-07T04:01:24.550Z,34.70
2019-05-07T04:03:54.263Z,29.27
2019-05-07T04:06:24.220Z,31.95
2019-05-07T04:08:57.765Z,27.67
2019-05-07T04:11:27.355Z,50.38
2019-05-07T04:13:55.933Z,41.02
2019-05-07T04:16:26.661Z,91.90
2019-05-07T04:18:57.006Z,32.67
2019-05-07T04:21:28.122Z,59.27
2019-05-07T04:24:14.224Z,57.78
2019-05-07T04:26:58.317Z,37.33
2019-05-07T04:29:27.848Z,45.10
2019-05-07T04:32:03.036Z,59.00
2019-05-07T04:34:47.685Z,189.15
2019-05-07T04:37:18.491Z,148.57
2019-05-07T04:39:55.588Z,51.48
2019-05-07T04:42:24.738Z,68.10
2019-05-07T04:44:55.389Z,94.52
2019-05-07T04:47:38.444Z,112.95
2019-05-07T04:49:58.503Z,96.22
2019-05-07T04:52:38.975Z,110.85
2019-05-07T04:55:09.197Z,58.68
2019-05-07T04:57:39.602Z,36.60
2019-05-07T05:00:13.171Z,76.28
2019-05-07T05:02:53.691Z,82.12
2019-05-07T05:05:24.444Z,95.70
2019-05-07T05:07:54.731Z,84.35
2019-05-07T05:10:23.358Z,95.97
2019-05-07T05:12:53.586Z,67.45
2019-05-07T05:15:23.296Z,108.07
2019-05-07T05:17:54.133Z,117.62
2019-05-07T05:20:42.786Z,98.60
2019-05-07T05:23:35.177Z,95.62
2019-05-07T05:26:24.717Z,96.65
2019-05-07T05:29:12.892Z,51.55
2019-05-07T05:31:59.809Z,56.68
2019-05-07T05:34:48.890Z,45.92
2019-05-07T05:37:36.884Z,104.97
2019-05-07T05:40:25.208Z,97.17
2019-05-07T05:43:23.792Z,64.40
2019-05-07T05:46:12.913Z,71.47
2019-05-07T05:49:02.552Z,61.83
2019-05-07T05:52:03.963Z,84.50
2019-05-07T05:54:53.758Z,44.55
2019-05-07T05:57:53.025Z,66.30
2019-05-07T06:00:42.323Z,33.80
2019-05-07T06:03:32.235Z,45.65
2019-05-07T06:06:21.931Z,38.13
2019-05-07T06:09:12.328Z,36.70
2019-05-07T06:12:08.720Z,37.50
2019-05-07T06:14:58.657Z,44.90
2019-05-07T06:18:02.578Z,35.90
2019-05-07T06:20:54.439Z,47.58
2019-05-07T06:23:46.278Z,37.10
2019-05-07T06:26:33.243Z,34.53
2019-05-07T06:29:23.092Z,32.08
2019-05-07T06:32:12.854Z,22.85
2019-05-07T06:35:03.121Z,25.62
2019-05-07T06:37:52.192Z,28.92
2019-05-07T06:40:48.747Z,38.60
2019-05-07T06:43:42.604Z,30.12
2019-05-07T06:46:29.723Z,40.20
2019-05-07T06:49:17.761Z,43.75
2019-05-07T06:52:04.784Z,32.17
2019-05-07T06:54:52.933Z,31.87
2019-05-07T06:57:42.529Z,31.93
2019-05-07T07:00:44.061Z,33.98
2019-05-07T07:03:34.175Z,48.00
2019-05-07T07:06:24.867Z,40.28
2019-05-07T07:09:14.140Z,41.28
2019-05-07T07:12:03.271Z,34.00
2019-05-07T07:14:51.769Z,31.85
2019-05-07T07:17:41.354Z,35.75
2019-05-07T07:20:29.029Z,33.63
2019-05-07T07:23:16.723Z,37.45
2019-05-07T07:26:05.438Z,31.90
2019-05-07T07:28:54.366Z,28.98
2019-05-07T07:31:42.983Z,32.05
2019-05-07T07:34:33.066Z,27.48
2019-05-07T07:37:24.866Z,32.35
2019-05-07T07:40:15.102Z,32.78
2019-05-07T07:43:06.472Z,35.05
2019-05-07T07:45:52.859Z,32.03
2019-05-07T07:48:43.218Z,27.67
2019-05-07T07:51:38.847Z,32.65
2019-05-07T07:54:22.686Z,34.60
2019-05-07T07:57:13.750Z,32.05
2019-05-07T08:00:03.132Z,30.45
2019-05-07T08:02:54.364Z,31.40
2019-05-07T08:05:42.876Z,32.42
2019-05-07T08:08:32.783Z,33.45
2019-05-07T08:11:21.972Z,31.87
2019-05-07T08:14:09.477Z,31.55
2019-05-07T08:16:57.042Z,32.63
2019-05-07T08:19:45.084Z,34.35
2019-05-07T08:22:33.856Z,32.17
2019-05-07T08:25:22.913Z,34.40
2019-05-07T08:28:11.924Z,28.85
2019-05-07T08:31:12.121Z,27.65
2019-05-07T08:34:01.979Z,26.27
2019-05-07T08:36:50.115Z,25.77
2019-05-07T08:39:37.810Z,25.95
2019-05-07T08:42:26.383Z,23.35
2019-05-07T08:45:32.617Z,19.98
2019-05-07T08:48:24.896Z,21.73
2019-05-07T08:51:12.921Z,23.57
2019-05-07T08:54:02.618Z,25.57
2019-05-07T08:56:52.662Z,21.70
2019-05-07T08:59:38.758Z,18.35
2019-05-07T09:02:26.164Z,16.67
2019-05-07T09:05:15.302Z,12.28
2019-05-07T09:08:04.197Z,14.55
2019-05-07T09:10:52.579Z,13.25
2019-05-07T09:13:39.414Z,11.97
2019-05-07T09:16:31.828Z,5.83
2019-05-07T09:19:21.680Z,9.38
2019-05-07T09:22:09.127Z,9.60
2019-05-07T09:24:56.826Z,8.20
2019-05-07T09:27:45.608Z,7.10
2019-05-07T09:30:42.074Z,9.85
2019-05-07T09:33:32.258Z,9.23
2019-05-07T09:36:22.774Z,8.93
2019-05-07T09:39:12.119Z,7.62
2019-05-07T09:42:02.043Z,7.65
2019-05-07T09:44:52.753Z,8.25
2019-05-07T09:47:41.800Z,7.83
2019-05-07T09:50:29.366Z,8.00
2019-05-07T09:53:18.359Z,13.08
2019-05-07T09:56:06.097Z,12.65
2019-05-07T09:58:53.270Z,9.50
2019-05-07T10:01:39.759Z,10.00
2019-05-07T10:04:27.420Z,8.08
2019-05-07T10:07:15.239Z,8.20
2019-05-07T10:10:03.431Z,8.35
2019-05-07T10:12:58.683Z,7.83
2019-05-07T10:15:47.381Z,7.80
2019-05-07T10:18:35.350Z,6.58
2019-05-07T10:21:23.680Z,7.67
2019-05-07T10:24:12.958Z,7.05
2019-05-07T10:27:02.215Z,7.45
2019-05-07T10:29:49.753Z,5.95
2019-05-07T10:32:37.305Z,6.03
2019-05-07T10:35:23.954Z,5.22
2019-05-07T10:38:12.943Z,7.45
2019-05-07T10:41:00.147Z,5.90
2019-05-07T10:43:47.317Z,5.80
2019-05-07T10:46:53.196Z,5.35
2019-05-07T10:49:42.689Z,6.00
2019-05-07T10:52:31.845Z,3.83
2019-05-07T10:55:22.278Z,4.03
2019-05-07T10:58:10.947Z,3.33
2019-05-07T11:00:59.309Z,3.77
2019-05-07T11:03:47.503Z,2.70
2019-05-07T11:06:34.351Z,4.12
2019-05-07T11:09:22.517Z,4.55
2019-05-07T11:12:10.293Z,4.65
2019-05-07T11:14:57.245Z,3.22
2019-05-07T11:17:49.240Z,3.05
2019-05-07T11:20:46.593Z,2.83
2019-05-07T11:23:25.446Z,4.40
2019-05-07T11:26:13.178Z,3.15
2019-05-07T11:28:59.646Z,2.65
2019-05-07T11:31:48.285Z,4.00
2019-05-07T11:34:37.160Z,4.80
2019-05-07T11:37:24.541Z,5.42
2019-05-07T11:40:13.438Z,4.03
2019-05-07T11:43:14.737Z,10.98
2019-05-07T11:46:03.500Z,3.58
2019-05-07T11:48:52.183Z,3.58
2019-05-07T11:51:47.346Z,3.60
2019-05-07T11:54:35.616Z,3.17
2019-05-07T11:57:24.497Z,3.47
2019-05-07T12:00:15.851Z,2.77
2019-05-07T12:03:04.483Z,5.50
2019-05-07T12:05:52.641Z,3.92
2019-05-07T12:08:45.887Z,3.10
2019-05-07T12:11:32.089Z,1.72
2019-05-07T12:14:29.765Z,3.33
2019-05-07T12:17:07.596Z,2.42
2019-05-07T12:19:53.426Z,3.72
2019-05-07T12:22:48.096Z,5.37
2019-05-07T12:25:35.966Z,5.28
2019-05-07T12:28:24.151Z,2.62
2019-05-07T12:31:13.661Z,2.87
2019-05-07T12:34:02.927Z,4.12
2019-05-07T12:36:52.329Z,2.72
2019-05-07T12:39:39.279Z,3.98
2019-05-07T12:42:27.067Z,2.50
2019-05-07T12:45:15.822Z,2.75
2019-05-07T12:48:03.463Z,2.52
2019-05-07T12:50:52.255Z,2.35
2019-05-07T12:53:42.698Z,2.67
2019-05-07T12:56:32.044Z,2.62
2019-05-07T12:59:18.248Z,3.05
2019-05-07T13:02:21.683Z,2.35
2019-05-07T13:04:58.096Z,3.60
2019-05-07T13:07:47.644Z,2.52
2019-05-07T13:10:34.865Z,2.72
2019-05-07T13:13:22.720Z,4.97
2019-05-07T13:16:12.818Z,5.33
2019-05-07T13:18:59.470Z,1.92
2019-05-07T13:21:49.861Z,2.33
2019-05-07T13:24:38.011Z,1.98
2019-05-07T13:27:25.398Z,2.62
2019-05-07T13:30:13.404Z,1.52
2019-05-07T13:33:02.824Z,1.92
2019-05-07T13:35:52.196Z,5.30
2019-05-07T13:38:42.695Z,2.00
2019-05-07T13:41:31.449Z,1.22
2019-05-07T13:44:37.044Z,3.15
2019-05-07T13:47:27.080Z,4.03
2019-05-07T13:50:14.818Z,2.20
2019-05-07T13:53:03.225Z,2.52
2019-05-07T13:55:49.879Z,1.20
2019-05-07T13:58:37.818Z,4.65
2019-05-07T14:01:27.326Z,3.00
2019-05-07T14:04:15.754Z,3.33
2019-05-07T14:07:03.480Z,2.62
2019-05-07T14:09:52.694Z,5.42
2019-05-07T14:12:42.589Z,2.25
2019-05-07T14:15:32.095Z,2.87
2019-05-07T14:18:19.797Z,1.50
2019-05-07T14:21:07.631Z,3.00
2019-05-07T14:23:54.856Z,1.92
2019-05-07T14:26:42.781Z,5.87
2019-05-07T14:29:31.903Z,1.90
2019-05-07T14:32:26.275Z,8.00
2019-05-07T14:35:03.618Z,2.60
2019-05-07T14:37:35.591Z,3.08
2019-05-07T14:42:39.293Z,2.87
2019-05-07T14:45:09.694Z,1.60
2019-05-07T14:47:38.724Z,3.80
2019-05-07T14:50:28.101Z,2.27
2019-05-07T14:53:13.716Z,2.45
2019-05-07T14:56:01.264Z,5.33
2019-05-07T14:58:31.888Z,6.53
2019-05-07T15:01:22.247Z,2.92
2019-05-07T15:04:02.277Z,2.35
2019-05-07T15:06:32.826Z,3.12
2019-05-07T15:09:02.304Z,5.37
2019-05-07T15:11:33.030Z,4.75
2019-05-07T15:14:20.243Z,1.40
2019-05-07T15:16:52.078Z,3.40
2019-05-07T15:19:21.755Z,2.95
2019-05-07T15:21:52.282Z,2.60
2019-05-07T15:24:41.342Z,3.22
2019-05-07T15:27:12.173Z,6.00
2019-05-07T15:29:43.464Z,6.65
2019-05-07T15:32:12.619Z,1.72
2019-05-07T15:34:42.919Z,2.47
2019-05-07T15:37:12.359Z,14.10
2019-05-07T15:39:42.177Z,2.45
2019-05-07T15:42:13.095Z,6.35
2019-05-07T15:44:44.536Z,4.25
2019-05-07T15:47:16.532Z,2.55
2019-05-07T15:49:44.598Z,10.75
2019-05-07T15:52:32.743Z,3.40
2019-05-07T15:55:06.809Z,3.98
2019-05-07T15:57:38.631Z,2.00
2019-05-07T16:00:21.643Z,2.35
2019-05-07T16:02:53.710Z,7.20
2019-05-07T16:05:23.460Z,1.82
2019-05-07T16:07:52.977Z,2.25
2019-05-07T16:10:23.342Z,3.87
2019-05-07T16:12:53.469Z,3.20
2019-05-07T16:15:25.225Z,4.70
2019-05-07T16:18:02.827Z,3.00
2019-05-07T16:20:32.750Z,6.15
2019-05-07T16:23:13.997Z,3.27
2019-05-07T16:25:34.448Z,5.95
2019-05-07T16:28:05.876Z,2.47
2019-05-07T16:30:34.050Z,3.05
2019-05-07T16:33:04.120Z,3.30
2019-05-07T16:35:35.736Z,1.87
2019-05-07T16:38:05.541Z,1.75
2019-05-07T16:40:34.515Z,3.02
2019-05-07T16:43:04.297Z,6.53
2019-05-07T16:45:37.271Z,4.20
2019-05-07T16:48:07.567Z,1.77
2019-05-07T16:50:35.957Z,1.90
2019-05-07T16:53:04.931Z,3.83
2019-05-07T16:55:37.064Z,4.15
2019-05-07T16:58:07.530Z,6.15
2019-05-07T17:00:42.260Z,4.05
2019-05-07T17:03:13.471Z,6.53
2019-05-07T17:05:44.254Z,5.00
2019-05-07T17:08:16.486Z,2.25
2019-05-07T17:10:46.892Z,2.65
2019-05-07T17:13:15.359Z,2.65
2019-05-07T17:16:03.015Z,2.15
2019-05-07T17:18:33.111Z,2.37
2019-05-07T17:21:04.509Z,4.90
2019-05-07T17:23:43.618Z,3.75
2019-05-07T17:26:04.939Z,3.37
2019-05-07T17:28:35.286Z,3.05
2019-05-07T17:31:05.397Z,1.98
2019-05-07T17:33:34.641Z,5.00
2019-05-07T17:36:04.258Z,5.80
2019-05-07T17:38:34.326Z,5.75
2019-05-07T17:41:10.803Z,3.62
2019-05-07T17:43:34.912Z,20.27
2019-05-07T17:46:08.383Z,3.85
2019-05-07T17:48:37.511Z,13.03
2019-05-07T17:51:07.770Z,2.27
2019-05-07T17:53:37.683Z,3.35
2019-05-07T17:56:08.121Z,3.42
2019-05-07T17:58:37.764Z,3.80
2019-05-07T18:01:08.777Z,5.05
2019-05-07T18:03:39.931Z,4.67
2019-05-07T18:06:08.995Z,4.40
2019-05-07T18:08:39.148Z,5.30
2019-05-07T18:11:20.249Z,4.50
2019-05-07T18:13:39.119Z,3.75
2019-05-07T18:16:12.387Z,2.80
2019-05-07T18:18:43.203Z,4.15
2019-05-07T18:21:14.114Z,1.95
2019-05-07T18:23:45.923Z,2.67
2019-05-07T18:26:27.209Z,1.57
2019-05-07T18:28:46.033Z,3.58
2019-05-07T18:31:15.915Z,3.95
2019-05-07T18:33:52.356Z,5.35
2019-05-07T18:36:22.781Z,4.75
2019-05-07T18:38:53.262Z,5.17
2019-05-07T18:41:22.686Z,2.62
2019-05-07T18:43:54.435Z,4.40
2019-05-07T18:46:22.819Z,5.90
2019-05-07T18:48:51.826Z,4.25
2019-05-07T18:51:21.664Z,3.45
2019-05-07T18:53:51.977Z,3.65
2019-05-07T18:56:22.482Z,3.60
2019-05-07T18:58:52.043Z,2.50
2019-05-07T19:01:22.665Z,3.98
2019-05-07T19:03:54.108Z,2.67
2019-05-07T19:06:23.076Z,5.08
2019-05-07T19:08:52.653Z,6.65
2019-05-07T19:11:23.830Z,3.20
2019-05-07T19:13:52.914Z,6.70
2019-05-07T19:16:23.069Z,4.87
2019-05-07T19:18:58.920Z,5.72
2019-05-07T19:21:27.579Z,8.53
2019-05-07T19:23:56.135Z,5.53
2019-05-07T19:26:26.550Z,4.30
2019-05-07T19:28:57.261Z,5.37
2019-05-07T19:34:53.423Z,3.47
2019-05-07T19:37:31.766Z,5.00
2019-05-07T19:40:05.708Z,4.00
2019-05-07T19:42:39.598Z,4.67
2019-05-07T19:45:18.298Z,4.37
2019-05-07T19:47:52.337Z,3.00
2019-05-07T19:59:24.021Z,5.70
2019-05-07T20:02:02.450Z,5.12
2019-05-07T20:04:45.326Z,5.28
2019-05-07T20:38:08.221Z,8.03
2019-05-07T20:40:39.455Z,5.10
2019-05-07T20:43:08.636Z,3.60
2019-05-07T20:45:38.646Z,5.58
2019-05-07T20:48:07.431Z,4.70
2019-05-07T20:50:35.720Z,5.12
2019-05-07T20:53:04.617Z,7.78
2019-05-07T20:55:35.337Z,3.15
2019-05-07T20:58:05.466Z,3.62
2019-05-07T21:00:35.682Z,3.87
2019-05-07T21:03:20.539Z,4.03
2019-05-07T21:05:53.386Z,3.70
2019-05-07T21:08:23.633Z,3.77
2019-05-07T21:10:53.736Z,8.25
2019-05-07T21:13:30.840Z,6.08
2019-05-07T21:15:54.804Z,4.53
2019-05-07T21:18:23.423Z,6.67
2019-05-07T21:20:54.736Z,5.78
2019-05-07T21:23:23.969Z,5.97
2019-05-07T21:25:54.793Z,7.47
2019-05-07T21:28:25.536Z,6.67
2019-05-07T21:30:54.969Z,3.95
2019-05-07T21:33:27.007Z,3.60
2019-05-07T21:35:56.941Z,3.60
2019-05-07T21:38:26.879Z,7.55
2019-05-07T21:41:06.148Z,4.30
2019-05-07T21:43:37.007Z,6.83
2019-05-07T21:46:07.011Z,6.33
2019-05-07T21:48:37.814Z,6.70
2019-05-07T21:51:07.368Z,3.25
2019-05-07T21:53:42.987Z,7.53
2019-05-07T21:56:23.155Z,6.00
2019-05-07T21:58:56.798Z,10.30
2019-05-07T22:01:27.232Z,6.20
2019-05-07T22:04:01.737Z,8.43
2019-05-07T22:06:30.068Z,7.00
2019-05-07T22:09:02.002Z,6.72
2019-05-07T22:11:33.227Z,6.80
2019-05-07T22:14:03.771Z,6.87
2019-05-07T22:16:33.012Z,7.28
2019-05-07T22:19:05.958Z,8.08
2019-05-07T22:21:35.672Z,8.60
2019-05-07T22:24:06.624Z,9.68
2019-05-07T22:26:34.976Z,6.70
2019-05-07T22:29:08.718Z,6.65
2019-05-07T22:31:44.206Z,9.80
2019-05-07T22:34:17.275Z,6.35
2019-05-07T22:36:46.366Z,4.20
2019-05-07T22:39:22.090Z,5.83
2019-05-07T22:41:53.411Z,10.48
2019-05-07T22:44:26.073Z,4.03
2019-05-07T22:46:53.712Z,6.92
2019-05-07T22:49:23.936Z,18.62
2019-05-07T22:51:54.960Z,30.60
2019-05-07T22:54:26.372Z,6.45
2019-05-07T22:56:58.275Z,6.42
2019-05-07T22:59:28.007Z,4.28
2019-05-07T23:01:58.178Z,2.92
2019-05-07T23:04:28.166Z,4.10
2019-05-07T23:06:57.738Z,4.67
2019-05-07T23:09:27.364Z,4.12
2019-05-07T23:11:56.707Z,4.37
2019-05-07T23:14:26.599Z,3.55
2019-05-07T23:16:55.581Z,5.53
2019-05-07T23:19:25.638Z,5.03
2019-05-07T23:21:54.704Z,6.75
2019-05-07T23:24:27.226Z,4.70
2019-05-07T23:26:57.847Z,3.37
2019-05-07T23:29:28.112Z,4.25
2019-05-07T23:31:58.662Z,6.75
2019-05-07T23:34:27.720Z,6.62
2019-05-07T23:36:58.946Z,5.20
2019-05-07T23:39:32.089Z,5.42
2019-05-07T23:42:07.542Z,5.00
2019-05-07T23:44:39.084Z,5.72
2019-05-07T23:47:08.636Z,5.53
2019-05-07T23:49:38.702Z,5.22
2019-05-07T23:52:07.781Z,2.80
2019-05-07T23:54:44.943Z,3.42
2019-05-07T23:57:16.073Z,3.95
2019-05-07T23:59:45.426Z,6.60
